WetterOnline ( https://www.wetteronline.de )

Wetter aktuell Greifswald

Aktuelles Wetter: Greifswald (6m)

6-stündlich | Neueste Meldungen
Ortszeit Temperatur Wetter
Mi, 12.08. 8:00 18.3° C wolkenlos
Mi, 12.08. 2:00 18.0° C wolkenlos
Di, 11.08. 20:00 20.4° C fast wolkenlos
Di, 11.08. 14:00 23.5° C wolkenlos
Di, 11.08. 8:00 19.3° C fast wolkenlos
Di, 11.08. 2:00 19.6° C wolkenlos
Mo, 10.08. 20:00 21.9° C fast wolkenlos
Mo, 10.08. 14:00 26.3° C fast wolkenlos
Ortszeit Temperatur Wetter
Mi, 12.08. 11:30 22.9° C leicht bewölkt
Mi, 12.08. 11:20 22.9° C leicht bewölkt
Mi, 12.08. 11:10 23.0° C leicht bewölkt
Mi, 12.08. 11:00 22.3° C leicht bewölkt
Mi, 12.08. 10:50 22.3° C leicht bewölkt
Mi, 12.08. 10:40 21.8° C leicht bewölkt
Mi, 12.08. 10:30 21.7° C fast wolkenlos
Mi, 12.08. 10:00 21.2° C fast wolkenlos
Mi, 12.08. 9:30 20.3° C wolkenlos
Mi, 12.08. 9:00 19.6° C wolkenlos
Mi, 12.08. 8:30 19.2° C wolkenlos
Mi, 12.08. 8:00 18.3° C wolkenlos
Ortszeit Relative Feuchte Sichtweite
Mi, 12.08. 8:00 75% 65 km
Mi, 12.08. 2:00 83% 60 km
Di, 11.08. 20:00 74% 60 km
Di, 11.08. 14:00 69% 55 km
Di, 11.08. 8:00 89% 50 km
Di, 11.08. 2:00 93% 40 km
Mo, 10.08. 20:00 80% 40 km
Mo, 10.08. 14:00 67% 40 km
Ortszeit Relative Feuchte Sichtweite
Mi, 12.08. 11:30 65% 60 km
Mi, 12.08. 11:20 65% -
Mi, 12.08. 11:10 58% -
Mi, 12.08. 11:00 61% 60 km
Mi, 12.08. 10:50 61% -
Mi, 12.08. 10:40 61% -
Mi, 12.08. 10:30 66% 60 km
Mi, 12.08. 10:00 67% 60 km
Mi, 12.08. 9:30 71% 60 km
Mi, 12.08. 9:00 72% 65 km
Mi, 12.08. 8:30 74% 65 km
Mi, 12.08. 8:00 75% 65 km
Ortszeit Niederschlagsmenge Niederschlagsart
Mi, 12.08. 8:00 0.0 l/m2 in 12 Std. -
Mi, 12.08. 2:00 0.0 l/m2 in 6 Std. -
Di, 11.08. 20:00 0.0 l/m2 in 12 Std. -
Di, 11.08. 14:00 0.0 l/m2 in 6 Std. -
Di, 11.08. 8:00 0.0 l/m2 in 12 Std. -
Di, 11.08. 2:00 0.0 l/m2 in 6 Std. -
Mo, 10.08. 20:00 0.0 l/m2 in 12 Std. -
Mo, 10.08. 14:00 0.0 l/m2 in 6 Std. -
Ortszeit Niederschlagsmenge Niederschlagsart
Mi, 12.08. 11:30 0.0 l/m2 in 1 Std. -
Mi, 12.08. 11:20 keine Meldung -
Mi, 12.08. 11:10 keine Meldung -
Mi, 12.08. 11:00 0.0 l/m2 in 1 Std. -
Mi, 12.08. 10:50 keine Meldung -
Mi, 12.08. 10:40 keine Meldung -
Mi, 12.08. 10:30 0.0 l/m2 in 1 Std. -
Mi, 12.08. 10:00 0.0 l/m2 in 1 Std. -
Mi, 12.08. 9:30 0.0 l/m2 in 1 Std. -
Mi, 12.08. 9:00 0.0 l/m2 in 1 Std. -
Mi, 12.08. 8:30 0.0 l/m2 in 1 Std. -
Mi, 12.08. 8:00 0.0 l/m2 in 1 Std. -
Ortszeit Stärke Spitze Richtung
km/h Bft. km/h Grad Sektor
Mi, 12.08. 8:00 14 3 25 110° O
Mi, 12.08. 2:00 11 2 35 80° O
Di, 11.08. 20:00 20 4 43 60° NO
Di, 11.08. 14:00 25 4 43 50° NO
Di, 11.08. 8:00 13 3 22 70° O
Di, 11.08. 2:00 11 2 29 80° O
Mo, 10.08. 20:00 11 2 43 60° NO
Mo, 10.08. 14:00 18 3 32 50° NO
Ortszeit Stärke Spitze Richtung
km/h Bft. km/h Grad Sektor
Mi, 12.08. 11:30 14 3 22 40° NO
Mi, 12.08. 11:20 14 3 - 40° NO
Mi, 12.08. 11:10 11 2 - 80° O
Mi, 12.08. 11:00 13 3 22 110° O
Mi, 12.08. 10:50 13 3 - 110° O
Mi, 12.08. 10:40 13 3 - 110° O
Mi, 12.08. 10:30 13 3 22 90° O
Mi, 12.08. 10:00 14 3 25 100° O
Mi, 12.08. 9:30 13 3 22 100° O
Mi, 12.08. 9:00 14 3 25 90° O
Mi, 12.08. 8:30 15 3 26 90° O
Mi, 12.08. 8:00 14 3 25 110° O
Ortszeit Untergrenze Bedeckung Gattung
total tief tief mittel hoch
Mi, 12.08. 8:00 - 0/8 0/8 - - -
Mi, 12.08. 2:00 - 0/8 0/8 - - -
Di, 11.08. 20:00 7800 m 1/8 0/8 - - Ci
Di, 11.08. 14:00 - 0/8 0/8 - - -
Di, 11.08. 8:00 4500 m 1/8 1/8 - Ac -
Di, 11.08. 2:00 - 0/8 0/8 - - -
Mo, 10.08. 20:00 1200 m 2/8 1/8 Cu Ac -
Mo, 10.08. 14:00 990 m 1/8 1/8 Cu Ac Ci
Ortszeit Bedeckungsgrad in Achtel und Wolkenuntergrenze
Mi, 12.08. 11:30 4(10500m)
Mi, 12.08. 11:20 1(10500m) 5(10500m)
Mi, 12.08. 11:10 1(10500m) 4(10500m)
Mi, 12.08. 11:00 4(10500m)
Mi, 12.08. 10:50 4(10500m)
Mi, 12.08. 10:40 6(10500m)
Mi, 12.08. 10:30 1(10500m)
Mi, 12.08. 10:00 1(9000m)
Mi, 12.08. 9:30 keine Wolken
Mi, 12.08. 9:00 keine Wolken
Mi, 12.08. 8:30 keine Wolken
Mi, 12.08. 8:00 keine Wolken
Ortszeit Luftdruck NN (hPa) Tendenz (hPa in 3 Std.)
Mi, 12.08. 8:00 1022 + 0,5
Mi, 12.08. 2:00 1023 - 0,1
Di, 11.08. 20:00 1022 - 0,4
Di, 11.08. 14:00 1023 + 0,5
Di, 11.08. 8:00 1022 + 0,4
Di, 11.08. 2:00 1021 + 0,8
Mo, 10.08. 20:00 1020 + 0,7
Mo, 10.08. 14:00 1019 + 0,1
Ortszeit Luftdruck NN (hPa) Tendenz (hPa in 3 Std.)
Mi, 12.08. 11:30 1022 - 0,1
Mi, 12.08. 11:20 1022 keine Meldung
Mi, 12.08. 11:10 1022 keine Meldung
Mi, 12.08. 11:00 1022 - 0,2
Mi, 12.08. 10:50 1022 keine Meldung
Mi, 12.08. 10:40 1022 keine Meldung
Mi, 12.08. 10:30 1022 - 0,2
Mi, 12.08. 10:00 1022 - 0,2
Mi, 12.08. 9:30 1022 - 0,2
Mi, 12.08. 9:00 1022 + 0,1
Mi, 12.08. 8:30 1022 + 0,3
Mi, 12.08. 8:00 1022 + 0,5
Ortszeit Schneehöhe (cm)
Mi, 12.08. 8:00 0
Mi, 12.08. 2:00 0
Di, 11.08. 20:00 0
Di, 11.08. 14:00 0
Di, 11.08. 8:00 0
Di, 11.08. 2:00 0
Mo, 10.08. 20:00 0
Mo, 10.08. 14:00 0
Ortszeit Schneehöhe (cm)
Mi, 12.08. 11:30 -
Mi, 12.08. 11:20 -
Mi, 12.08. 11:10 -
Mi, 12.08. 11:00 -
Mi, 12.08. 10:50 -
Mi, 12.08. 10:40 -
Mi, 12.08. 10:30 -
Mi, 12.08. 10:00 -
Mi, 12.08. 9:30 -
Mi, 12.08. 9:00 -
Mi, 12.08. 8:30 -
Mi, 12.08. 8:00 0
Link zu dieser Seite / Seite empfehlen

Das Wetter in ...